Time;durP1;ratioP1;P1;durP2;ratioP2;P2;SDS_P1;SDS_P2;PMS_P1;PMS_P2;Temp;Humidity;BMP_temperature;BMP_pressure;BME280_temperature;BME280_humidity;BME280_pressure;Samples;Min_cycle;Max_cycle;Signal;HPM_P1;HPM_P2
2021/10/31 00:02:06;;;;;;;19.05;11.75;;;;;;;5.51;70.71;101862.51;1762083;79;21125;-60
2021/10/31 00:04:32;;;;;;;19.90;11.20;;;;;;;5.49;70.64;101861.72;1772640;79;21027;-60
2021/10/31 00:06:59;;;;;;;18.95;11.55;;;;;;;5.46;70.28;101857.06;1766670;79;21097;-61
2021/10/31 00:09:25;;;;;;;19.57;11.45;;;;;;;5.43;70.11;101849.33;1727893;79;21229;-60
2021/10/31 00:11:52;;;;;;;18.45;11.63;;;;;;;5.35;69.92;101848.31;1767319;79;21062;-60
2021/10/31 00:14:19;;;;;;;16.50;11.60;;;;;;;5.35;69.93;101850.92;1756810;79;21544;-62
2021/10/31 00:16:46;;;;;;;19.45;11.73;;;;;;;5.44;69.80;101858.88;1750355;79;21134;-62
2021/10/31 00:19:12;;;;;;;16.55;11.15;;;;;;;5.53;70.09;101860.72;1757659;79;21545;-60
2021/10/31 00:21:39;;;;;;;18.32;11.70;;;;;;;5.57;70.25;101854.93;1752886;79;21225;-60
2021/10/31 00:24:05;;;;;;;18.98;11.53;;;;;;;5.58;70.40;101852.27;1756186;79;21068;-59
2021/10/31 00:26:32;;;;;;;17.05;10.50;;;;;;;5.56;70.63;101849.30;1760839;79;21532;-60
2021/10/31 00:28:58;;;;;;;20.15;11.03;;;;;;;5.53;70.83;101845.48;1752624;79;21063;-60
2021/10/31 00:31:25;;;;;;;20.80;10.03;;;;;;;5.49;70.85;101842.59;1762396;79;21223;-61
2021/10/31 00:33:53;;;;;;;19.40;12.10;;;;;;;5.47;70.78;101837.89;1754911;79;21036;-61
2021/10/31 00:36:20;;;;;;;18.20;11.43;;;;;;;5.40;70.79;101835.95;1754303;79;21491;-61
2021/10/31 00:38:46;;;;;;;19.77;10.72;;;;;;;5.31;70.91;101832.34;1742777;79;21070;-59
2021/10/31 00:41:12;;;;;;;16.75;10.23;;;;;;;5.29;71.06;101834.16;1761108;79;21493;-60
2021/10/31 00:43:39;;;;;;;15.72;10.58;;;;;;;5.38;70.84;101828.17;1703428;81;21106;-60
2021/10/31 00:46:05;;;;;;;16.57;11.00;;;;;;;5.44;70.74;101831.47;1758912;79;21127;-60
2021/10/31 00:48:31;;;;;;;17.75;11.75;;;;;;;5.49;70.74;101834.77;1752957;79;21094;-61
2021/10/31 00:50:58;;;;;;;20.88;12.58;;;;;;;5.49;70.71;101836.07;1760733;79;21019;-61
2021/10/31 00:53:24;;;;;;;18.07;11.85;;;;;;;5.43;70.78;101828.02;1757317;79;21075;-60
2021/10/31 00:55:51;;;;;;;20.90;11.43;;;;;;;5.35;70.87;101821.75;1763823;79;21384;-60
2021/10/31 00:58:18;;;;;;;19.02;11.05;;;;;;;5.32;71.04;101821.84;1755804;79;22437;-61
2021/10/31 01:00:47;;;;;;;19.70;12.05;;;;;;;5.31;71.11;101823.20;1763210;79;21093;-60
2021/10/31 01:03:14;;;;;;;21.10;12.93;;;;;;;5.29;70.97;101819.34;1757907;79;21079;-61
2021/10/31 01:05:47;;;;;;;25.37;13.05;;;;;;;5.25;70.78;101816.45;1763397;79;22335;-60
2021/10/31 01:08:31;;;;;;;21.70;12.78;;;;;;;5.22;70.86;101813.94;1745886;80;21505;-59
2021/10/31 01:11:06;;;;;;;18.77;12.23;;;;;;;5.23;70.80;101806.52;1742394;79;21763;-60
2021/10/31 01:13:39;;;;;;;17.20;11.63;;;;;;;5.27;70.81;101806.80;1758411;79;21105;-60
2021/10/31 01:16:22;;;;;;;19.27;11.80;;;;;;;5.29;70.63;101806.30;1765776;79;21110;-60
2021/10/31 01:19:04;;;;;;;19.92;12.28;;;;;;;5.34;70.82;101805.67;1737096;79;21055;-60
2021/10/31 01:22:05;;;;;;;22.20;12.82;;;;;;;5.28;70.73;101803.30;1742907;79;21450;-60
2021/10/31 01:25:04;;;;;;;31.75;14.05;;;;;;;5.22;70.81;101802.20;1712456;82;21162;-60
2021/10/31 01:28:07;;;;;;;18.60;12.40;;;;;;;5.14;70.72;101799.00;1770096;79;21051;-61
2021/10/31 01:30:42;;;;;;;21.30;11.83;;;;;;;5.06;70.86;101795.80;1767448;79;21082;-61
2021/10/31 01:33:29;;;;;;;25.77;12.68;;;;;;;4.94;71.04;101799.25;1767997;79;21945;-60
2021/10/31 01:36:13;;;;;;;22.22;12.63;;;;;;;4.85;70.92;101793.02;1763214;79;21736;-60
2021/10/31 01:39:20;;;;;;;19.30;12.05;;;;;;;4.82;70.46;101797.03;1729919;80;21366;-60
2021/10/31 01:42:07;;;;;;;31.07;13.53;;;;;;;4.88;70.36;101793.39;1739309;80;21362;-60
2021/10/31 01:44:44;;;;;;;16.00;11.48;;;;;;;4.92;70.35;101794.52;1761450;79;22515;-60
2021/10/31 01:47:51;;;;;;;19.80;11.97;;;;;;;5.00;70.49;101789.89;1769533;79;20996;-61
2021/10/31 01:50:38;;;;;;;19.42;12.95;;;;;;;5.00;70.49;101789.89;1763412;79;21042;-60
2021/10/31 01:53:39;;;;;;;19.82;12.78;;;;;;;4.99;70.47;101782.98;1757916;79;21199;-61
2021/10/31 01:56:13;;;;;;;24.92;13.28;;;;;;;4.97;70.43;101786.53;1753357;79;20975;-60
2021/10/31 01:58:43;;;;;;;26.70;13.83;;;;;;;4.91;70.19;101782.83;1766835;79;21003;-59
2021/10/31 02:01:10;;;;;;;28.40;13.60;;;;;;;4.84;70.23;101787.39;1774318;79;21043;-61
2021/10/31 02:03:38;;;;;;;29.90;13.93;;;;;;;4.79;70.21;101781.05;1767291;79;21630;-61
2021/10/31 02:06:04;;;;;;;20.37;12.85;;;;;;;4.76;70.22;101784.22;1737334;80;21078;-60
2021/10/31 02:08:30;;;;;;;19.82;13.32;;;;;;;4.76;70.28;101782.45;1754576;79;21074;-60
2021/10/31 02:10:57;;;;;;;18.07;12.15;;;;;;;4.84;69.85;101777.84;1732246;79;21110;-61
2021/10/31 02:13:25;;;;;;;18.67;12.45;;;;;;;4.92;69.83;101786.69;1739498;80;21078;-61
2021/10/31 02:15:52;;;;;;;24.98;12.90;;;;;;;4.99;70.00;101784.72;1745357;81;21175;-60
2021/10/31 02:18:21;;;;;;;19.30;13.58;;;;;;;5.05;70.28;101779.30;1750156;81;21011;-60
2021/10/31 02:20:52;;;;;;;19.10;12.75;;;;;;;5.06;70.38;101781.02;1724269;81;21074;-60
2021/10/31 02:23:19;;;;;;;26.80;13.18;;;;;;;5.04;70.33;101776.28;1753402;79;21064;-60
2021/10/31 02:25:46;;;;;;;19.27;13.48;;;;;;;5.02;70.51;101780.70;1727975;81;21055;-61
2021/10/31 02:28:12;;;;;;;23.52;13.15;;;;;;;5.00;70.52;101776.84;1757601;81;21016;-60
2021/10/31 02:30:39;;;;;;;23.57;13.28;;;;;;;4.99;70.37;101779.08;1759176;81;21161;-61
2021/10/31 02:33:05;;;;;;;24.82;13.58;;;;;;;4.95;70.29;101779.22;1757806;80;21047;-61
2021/10/31 02:35:33;;;;;;;19.45;12.88;;;;;;;4.93;70.35;101775.36;1760524;81;21098;-61
2021/10/31 02:37:59;;;;;;;18.82;12.53;;;;;;;4.98;70.38;101773.45;1724037;81;21018;-61
2021/10/31 02:40:26;;;;;;;17.12;12.63;;;;;;;5.07;70.09;101779.25;1748936;81;21003;-61
2021/10/31 02:42:52;;;;;;;15.93;10.93;;;;;;;5.10;69.85;101778.69;1754748;80;21963;-61
2021/10/31 02:45:18;;;;;;;16.82;11.73;;;;;;;5.14;69.70;101782.05;1718970;81;21798;-61
2021/10/31 02:48:05;;;;;;;18.55;12.85;;;;;;;5.16;69.54;101780.22;1725201;81;21047;-60
2021/10/31 02:50:36;;;;;;;20.90;12.88;;;;;;;5.13;69.45;101782.97;1754120;80;21109;-60
2021/10/31 02:53:47;;;;;;;23.85;13.30;;;;;;;5.07;69.17;101776.19;1758209;80;21109;-60
2021/10/31 02:56:28;;;;;;;19.92;13.08;;;;;;;4.99;69.06;101775.16;1749998;80;21210;-60
2021/10/31 02:58:59;;;;;;;23.32;12.93;;;;;;;4.92;69.03;101774.95;1718268;81;21050;-61
2021/10/31 03:01:26;;;;;;;25.95;13.78;;;;;;;4.85;68.94;101773.46;1751439;80;21106;-61
2021/10/31 03:03:54;;;;;;;22.17;13.65;;;;;;;4.79;69.03;101780.17;1752903;80;21047;-60
2021/10/31 03:06:21;;;;;;;21.73;13.53;;;;;;;4.75;69.04;101774.67;1755288;80;21110;-61
2021/10/31 03:08:47;;;;;;;18.73;13.03;;;;;;;4.71;68.99;101776.54;1722023;81;21188;-62
2021/10/31 03:11:14;;;;;;;17.07;12.00;;;;;;;4.70;68.90;101770.06;1718123;81;21078;-60
2021/10/31 03:13:40;;;;;;;19.57;12.00;;;;;;;4.79;68.67;101767.14;1753302;80;21110;-60
2021/10/31 03:16:07;;;;;;;18.70;12.78;;;;;;;4.87;68.51;101771.64;1746217;81;21060;-60
2021/10/31 03:18:34;;;;;;;19.65;12.43;;;;;;;4.91;68.45;101771.09;1751684;81;21531;-61
2021/10/31 03:21:00;;;;;;;25.90;13.58;;;;;;;4.88;68.36;101777.28;1751564;81;21140;-61
2021/10/31 03:23:27;;;;;;;21.52;14.10;;;;;;;4.84;68.23;101768.70;1755806;80;21047;-62
2021/10/31 03:25:53;;;;;;;20.97;13.13;;;;;;;4.82;68.35;101762.70;1754372;80;21039;-61
2021/10/31 03:28:20;;;;;;;21.15;13.43;;;;;;;4.79;68.46;101760.19;1754167;80;21471;-60
2021/10/31 03:30:46;;;;;;;21.65;12.85;;;;;;;4.77;68.40;101761.12;1750995;81;21074;-61
2021/10/31 03:33:13;;;;;;;22.20;13.08;;;;;;;4.73;68.27;101759.55;1749901;80;22418;-61
2021/10/31 03:35:39;;;;;;;33.05;15.10;;;;;;;4.68;68.39;101757.08;1750763;80;22147;-60
2021/10/31 03:38:06;;;;;;;23.98;14.47;;;;;;;4.63;68.41;101763.74;1727078;81;21070;-61
2021/10/31 03:40:33;;;;;;;21.20;13.45;;;;;;;4.59;67.99;101758.67;1718924;81;21838;-59
2021/10/31 03:42:59;;;;;;;19.57;12.60;;;;;;;4.64;67.94;101764.16;1751312;81;21145;-60
2021/10/31 03:45:26;;;;;;;18.65;12.13;;;;;;;4.70;68.03;101762.25;1752085;80;21108;-61
2021/10/31 03:47:53;;;;;;;20.20;12.88;;;;;;;4.70;68.01;101757.88;1752119;80;21047;-61
2021/10/31 03:50:23;;;;;;;20.08;12.58;;;;;;;4.65;68.05;101758.02;1726356;80;21568;-61
2021/10/31 03:52:50;;;;;;;18.25;13.83;;;;;;;4.58;68.05;101755.22;1751276;80;21042;-61
2021/10/31 03:55:17;;;;;;;23.15;12.85;;;;;;;4.53;68.04;101757.59;1751175;80;21074;-61
2021/10/31 03:57:43;;;;;;;16.87;11.80;;;;;;;4.48;67.89;101752.52;1750355;80;21076;-61
2021/10/31 04:00:13;;;;;;;16.60;11.88;;;;;;;4.39;67.74;101756.75;1745094;80;21049;-61
2021/10/31 04:02:39;;;;;;;21.02;13.03;;;;;;;4.32;67.68;101761.73;1752413;81;20992;-61
2021/10/31 04:05:07;;;;;;;18.62;12.80;;;;;;;4.26;67.53;101758.87;1754124;81;21088;-60
2021/10/31 04:07:34;;;;;;;22.87;12.88;;;;;;;4.20;67.41;101749.94;1724902;81;21049;-60
2021/10/31 04:10:04;;;;;;;20.23;12.43;;;;;;;4.14;67.53;101747.09;1748545;80;21624;-60
2021/10/31 04:12:33;;;;;;;18.57;13.48;;;;;;;4.09;67.48;101748.98;1747473;81;21016;-60
2021/10/31 04:14:59;;;;;;;19.05;13.62;;;;;;;4.08;67.64;101743.36;1766579;79;21022;-59
2021/10/31 04:17:26;;;;;;;17.75;12.23;;;;;;;4.14;67.64;101743.64;1762282;79;20988;-59
2021/10/31 04:19:52;;;;;;;20.60;12.23;;;;;;;4.20;67.68;101746.03;1771820;78;21075;-60
2021/10/31 04:22:19;;;;;;;18.12;11.93;;;;;;;4.25;67.53;101744.12;1766130;79;21512;-59
2021/10/31 04:24:46;;;;;;;22.13;13.68;;;;;;;4.27;67.54;101737.98;1772100;78;22215;-59
2021/10/31 04:27:13;;;;;;;20.90;13.10;;;;;;;4.24;67.70;101738.54;1778067;79;21011;-60
2021/10/31 04:29:39;;;;;;;23.50;12.45;;;;;;;4.21;67.77;101742.08;1775134;78;22002;-62
2021/10/31 04:32:07;;;;;;;22.73;12.98;;;;;;;4.17;67.82;101740.91;1754890;80;21369;-58
2021/10/31 04:34:33;;;;;;;32.93;14.18;;;;;;;4.14;67.73;101736.67;1771274;79;21743;-59
2021/10/31 04:37:01;;;;;;;23.30;13.55;;;;;;;4.08;67.57;101739.45;1768609;78;21061;-60
2021/10/31 04:39:28;;;;;;;24.47;13.18;;;;;;;4.03;67.64;101729.63;1728061;82;21107;-60
2021/10/31 04:42:01;;;;;;;28.02;13.80;;;;;;;3.97;67.72;101735.02;1699211;83;21411;-60
2021/10/31 04:44:22;;;;;;;39.18;13.43;;;;;;;3.89;67.99;101733.52;1709364;82;21579;-59
2021/10/31 04:46:49;;;;;;;22.70;12.80;;;;;;;3.85;68.17;101734.52;1713237;81;21097;-60
2021/10/31 04:49:15;;;;;;;21.30;13.30;;;;;;;3.85;68.24;101730.61;1702710;82;21075;-59
2021/10/31 04:51:42;;;;;;;22.27;12.80;;;;;;;3.93;67.92;101723.84;1703088;82;21082;-60
2021/10/31 04:54:09;;;;;;;26.55;17.15;;;;;;;3.99;67.70;101729.34;1683570;82;21110;-60
2021/10/31 04:56:35;;;;;;;31.62;17.20;;;;;;;4.02;67.69;101726.64;1696595;82;21619;-60
2021/10/31 04:59:01;;;;;;;37.33;20.62;;;;;;;4.01;67.83;101730.14;1690200;82;21203;-61
2021/10/31 05:01:28;;;;;;;55.10;29.95;;;;;;;3.98;67.86;101738.87;1708880;82;21062;-60
2021/10/31 05:03:55;;;;;;;60.50;30.08;;;;;;;3.94;67.79;101734.68;1689114;82;22452;-64
2021/10/31 05:06:21;;;;;;;49.18;26.20;;;;;;;3.90;67.78;101733.92;1702198;82;21393;-60
2021/10/31 05:08:48;;;;;;;45.15;25.92;;;;;;;3.85;67.74;101733.22;1710790;81;21571;-58
2021/10/31 05:11:14;;;;;;;33.92;21.07;;;;;;;3.85;67.85;101737.55;1707475;83;21120;-59
2021/10/31 05:13:41;;;;;;;30.25;18.73;;;;;;;3.82;67.93;101735.06;1708700;82;21153;-59
2021/10/31 05:16:08;;;;;;;37.70;23.35;;;;;;;3.79;68.14;101737.30;1704516;82;21015;-61
2021/10/31 05:18:35;;;;;;;42.40;22.42;;;;;;;3.78;68.25;101735.58;1764174;79;21583;-59
2021/10/31 05:21:01;;;;;;;31.20;18.65;;;;;;;3.84;68.20;101734.56;1745036;80;21000;-60
2021/10/31 05:23:28;;;;;;;32.42;19.20;;;;;;;3.97;68.05;101737.63;1768567;78;21097;-58
2021/10/31 05:25:55;;;;;;;38.15;20.90;;;;;;;4.05;67.99;101740.84;1769237;78;20980;-60
2021/10/31 05:28:21;;;;;;;29.90;20.55;;;;;;;4.09;67.93;101741.17;1761704;78;20976;-60
2021/10/31 05:30:48;;;;;;;40.65;21.10;;;;;;;4.08;67.87;101739.45;1767693;78;22317;-58
2021/10/31 05:33:15;;;;;;;33.70;20.37;;;;;;;4.08;67.92;101742.94;1737973;78;21191;-60
2021/10/31 05:35:41;;;;;;;36.15;19.23;;;;;;;4.09;67.95;101737.27;1768725;78;21948;-59
2021/10/31 05:38:07;;;;;;;31.85;18.52;;;;;;;4.07;67.90;101745.13;1766502;78;20995;-58
2021/10/31 05:40:34;;;;;;;34.25;19.60;;;;;;;4.06;67.85;101738.20;1769310;78;21180;-57
2021/10/31 05:43:00;;;;;;;28.73;18.55;;;;;;;4.03;67.91;101733.08;1732046;80;20995;-59
2021/10/31 05:45:27;;;;;;;25.82;16.82;;;;;;;4.02;68.05;101735.77;1739429;78;21074;-59
2021/10/31 05:47:54;;;;;;;24.47;16.82;;;;;;;4.00;68.31;101736.23;1765330;78;21100;-59
2021/10/31 05:50:21;;;;;;;22.93;16.17;;;;;;;4.05;68.32;101736.52;1765515;78;21543;-60
2021/10/31 05:52:47;;;;;;;24.57;15.93;;;;;;;4.21;68.17;101742.08;1768449;79;20980;-60
2021/10/31 05:55:15;;;;;;;22.70;16.62;;;;;;;4.32;68.05;101731.77;1760982;80;21802;-60
2021/10/31 05:57:42;;;;;;;27.07;17.07;;;;;;;4.40;68.10;101733.20;1701751;82;21009;-60
2021/10/31 06:00:10;;;;;;;26.15;17.15;;;;;;;4.48;68.33;101737.34;1763455;80;21128;-59
2021/10/31 06:02:44;;;;;;;21.15;16.27;;;;;;;4.52;68.31;101740.23;1766789;78;21045;-58
2021/10/31 06:05:12;;;;;;;25.05;16.60;;;;;;;4.56;68.39;101742.70;1739941;80;21082;-59
2021/10/31 06:07:41;;;;;;;23.60;17.00;;;;;;;4.59;68.34;101749.12;1763244;78;21149;-60
2021/10/31 06:10:09;;;;;;;26.42;17.02;;;;;;;4.61;68.45;101753.83;1769940;78;21085;-60
2021/10/31 06:12:37;;;;;;;24.00;16.55;;;;;;;4.65;68.68;101754.11;1769694;79;21136;-59
2021/10/31 06:15:06;;;;;;;25.37;16.80;;;;;;;4.70;68.76;101756.57;1735045;80;21074;-59
2021/10/31 06:17:33;;;;;;;24.27;15.95;;;;;;;4.74;68.92;101755.58;1735030;80;21429;-60
2021/10/31 06:20:00;;;;;;;26.00;16.75;;;;;;;4.87;68.87;101758.61;1739031;80;21056;-59
2021/10/31 06:22:26;;;;;;;24.90;16.85;;;;;;;5.07;68.83;101754.47;1735190;80;20997;-60
2021/10/31 06:24:53;;;;;;;22.73;15.93;;;;;;;5.22;68.84;101755.22;1738633;80;21124;-58
2021/10/31 06:27:19;;;;;;;21.45;16.17;;;;;;;5.37;68.92;101753.36;1732441;80;21004;-59
2021/10/31 06:29:45;;;;;;;26.52;18.30;;;;;;;5.48;68.97;101756.03;1702562;83;21131;-58
2021/10/31 06:32:13;;;;;;;20.57;15.70;;;;;;;5.52;69.11;101763.70;1734732;80;21088;-60
2021/10/31 06:34:40;;;;;;;22.65;15.50;;;;;;;5.55;69.18;101755.77;1734775;80;20977;-62
2021/10/31 06:37:06;;;;;;;23.83;16.40;;;;;;;5.61;69.18;101753.83;1705597;80;21050;-60
2021/10/31 06:39:32;;;;;;;21.87;15.78;;;;;;;5.65;69.25;101761.50;1736390;80;21112;-61
2021/10/31 06:41:59;;;;;;;26.62;16.75;;;;;;;5.68;69.23;101756.17;1737490;80;21032;-59
2021/10/31 06:44:26;;;;;;;29.87;17.05;;;;;;;5.70;69.23;101762.18;1733940;80;21040;-59
2021/10/31 06:46:52;;;;;;;21.82;16.17;;;;;;;5.71;69.42;101758.64;1741732;80;22432;-59
2021/10/31 06:49:19;;;;;;;23.70;15.83;;;;;;;5.80;69.40;101752.24;1712211;80;21082;-59
2021/10/31 06:51:45;;;;;;;26.52;16.20;;;;;;;5.97;69.41;101752.93;1733260;80;21055;-59
2021/10/31 06:54:14;;;;;;;24.12;15.48;;;;;;;6.12;69.44;101744.48;1738249;80;21597;-59
2021/10/31 06:56:41;;;;;;;23.83;16.32;;;;;;;6.24;69.55;101747.06;1735778;80;21111;-59
2021/10/31 06:59:08;;;;;;;24.82;19.15;;;;;;;6.35;69.74;101745.31;1728200;80;21794;-59
2021/10/31 07:01:35;;;;;;;22.70;16.77;;;;;;;6.45;70.15;101746.63;1715573;82;21205;-59
2021/10/31 07:04:03;;;;;;;24.98;18.07;;;;;;;6.59;70.41;101749.14;1738112;80;21106;-59
2021/10/31 07:06:29;;;;;;;26.20;18.20;;;;;;;6.71;70.20;101751.27;1729328;80;21571;-59
2021/10/31 07:08:55;;;;;;;25.68;18.55;;;;;;;6.77;70.05;101750.98;1738024;80;21032;-58
2021/10/31 07:11:22;;;;;;;26.37;18.48;;;;;;;6.84;69.88;101745.03;1713749;80;21504;-56
2021/10/31 07:13:48;;;;;;;25.45;17.80;;;;;;;6.89;69.89;101748.30;1738917;80;21126;-57
2021/10/31 07:16:16;;;;;;;24.00;16.30;;;;;;;6.98;69.75;101750.55;1750477;80;21391;-58
2021/10/31 07:18:43;;;;;;;27.17;17.73;;;;;;;7.15;69.50;101743.27;1733113;79;23084;-58
2021/10/31 07:21:09;;;;;;;25.75;15.90;;;;;;;7.29;69.29;101744.42;1757968;79;21055;-57
2021/10/31 07:23:37;;;;;;;29.80;19.25;;;;;;;7.41;69.15;101734.70;1763676;79;21540;-57
2021/10/31 07:26:03;;;;;;;27.42;18.25;;;;;;;7.50;69.24;101739.97;1764303;79;21125;-60
2021/10/31 07:28:30;;;;;;;29.63;18.00;;;;;;;7.57;69.26;101736.18;1743696;80;21059;-59
2021/10/31 07:30:58;;;;;;;29.27;18.20;;;;;;;7.65;69.19;101739.73;1762110;79;21050;-59
2021/10/31 07:34:59;;;;;;;23.67;16.62;;;;;;;7.76;68.80;101730.93;1792555;77;22209;-60
2021/10/31 07:37:29;;;;;;;26.87;16.85;;;;;;;7.83;68.84;101735.42;1765202;80;21056;-60
2021/10/31 07:39:55;;;;;;;28.52;17.15;;;;;;;8.00;68.58;101736.34;1757453;79;21145;-60
2021/10/31 07:42:28;;;;;;;30.12;17.67;;;;;;;8.18;68.50;101736.36;1762976;80;21014;-60
2021/10/31 07:44:52;;;;;;;28.80;17.35;;;;;;;8.32;68.23;101736.55;1737630;80;21500;-58
2021/10/31 07:47:18;;;;;;;24.63;16.52;;;;;;;8.42;67.93;101740.02;1766438;78;21398;-59
2021/10/31 07:49:45;;;;;;;29.32;18.87;;;;;;;8.48;68.00;101734.05;1771018;80;21670;-60
2021/10/31 07:52:11;;;;;;;27.93;19.35;;;;;;;8.53;67.98;101739.91;1773258;79;21144;-59
2021/10/31 07:54:38;;;;;;;29.48;19.23;;;;;;;8.58;67.99;101744.94;1768119;78;21055;-59
2021/10/31 07:57:05;;;;;;;30.37;18.35;;;;;;;8.64;68.04;101745.95;1763505;78;21097;-60
2021/10/31 07:59:33;;;;;;;22.70;15.32;;;;;;;8.73;67.81;101740.22;1769583;78;20975;-60
2021/10/31 08:02:02;;;;;;;26.75;16.12;;;;;;;8.88;67.33;101739.91;1767412;78;21670;-61
2021/10/31 08:04:28;;;;;;;26.25;17.25;;;;;;;9.02;67.41;101742.30;1729382;80;21047;-60
2021/10/31 08:06:55;;;;;;;24.52;16.15;;;;;;;9.17;67.42;101741.48;1681213;81;21089;-60
2021/10/31 08:09:21;;;;;;;25.52;16.67;;;;;;;9.27;67.04;101737.92;1714314;81;21066;-61
2021/10/31 08:11:49;;;;;;;26.20;18.07;;;;;;;9.37;66.86;101740.91;1715185;81;22275;-61
2021/10/31 08:16:16;;;;;;;25.32;16.10;;;;;;;9.55;66.29;101733.80;1796430;78;22578;-60
2021/10/31 08:18:43;;;;;;;21.12;14.45;;;;;;;9.52;66.30;101736.62;1797712;78;21002;-61
2021/10/31 08:21:10;;;;;;;26.05;16.62;;;;;;;9.56;66.32;101732.88;1778154;78;21098;-60
2021/10/31 08:23:36;;;;;;;21.33;14.47;;;;;;;9.63;66.01;101734.23;1764893;78;20864;-60
2021/10/31 08:26:03;;;;;;;23.65;14.80;;;;;;;9.73;65.47;101725.38;1801126;78;20892;-60
2021/10/31 08:28:33;;;;;;;21.57;15.43;;;;;;;9.88;65.09;101728.47;1798243;78;20864;-60
2021/10/31 08:30:59;;;;;;;21.40;15.83;;;;;;;10.02;64.85;101725.94;1767981;78;21770;-61
2021/10/31 08:33:32;;;;;;;28.30;16.70;;;;;;;10.16;64.75;101725.14;1795234;77;21134;-62
2021/10/31 08:35:56;;;;;;;23.60;15.88;;;;;;;10.23;64.81;101721.22;1803586;78;20915;-60
2021/10/31 08:38:22;;;;;;;19.35;11.83;;;;;;;10.30;64.66;101718.25;1798783;77;21011;-61
2021/10/31 08:40:50;;;;;;;20.88;13.88;;;;;;;10.35;64.25;101716.23;1773020;78;21101;-60
2021/10/31 08:43:17;;;;;;;19.48;14.10;;;;;;;10.42;64.02;101714.93;1793384;78;21066;-60
2021/10/31 08:45:44;;;;;;;22.75;13.90;;;;;;;10.49;63.89;101718.92;1805696;77;21046;-61
2021/10/31 08:48:11;;;;;;;22.52;14.20;;;;;;;10.54;63.49;101714.23;1798276;78;21117;-60
2021/10/31 08:50:38;;;;;;;20.80;14.10;;;;;;;10.55;63.28;101711.96;1799346;77;21038;-59
2021/10/31 08:53:09;;;;;;;20.48;12.82;;;;;;;10.56;62.96;101714.98;1802945;77;21042;-59
2021/10/31 08:55:36;;;;;;;20.68;12.82;;;;;;;10.62;62.97;101715.56;1765343;78;21062;-60
2021/10/31 08:58:07;;;;;;;19.92;12.37;;;;;;;10.76;62.72;101703.28;1806993;77;21107;-60
2021/10/31 09:00:34;;;;;;;19.25;11.78;;;;;;;10.90;62.52;101710.34;1800082;77;20953;-59
2021/10/31 09:03:01;;;;;;;18.48;12.30;;;;;;;11.01;62.25;101695.67;1747416;80;21178;-60
2021/10/31 09:05:28;;;;;;;25.32;12.43;;;;;;;11.09;62.10;101703.95;1743901;81;21007;-59
2021/10/31 09:07:55;;;;;;;18.23;12.53;;;;;;;11.18;61.83;101702.09;1722899;81;22402;-58
2021/10/31 09:10:23;;;;;;;19.05;11.60;;;;;;;11.25;61.34;101698.13;1748092;80;21188;-58
2021/10/31 09:12:50;;;;;;;18.87;11.70;;;;;;;11.29;60.70;101696.98;1743449;80;21114;-59
2021/10/31 09:15:16;;;;;;;15.53;11.40;;;;;;;11.32;60.61;101698.11;1728606;80;21103;-58
2021/10/31 09:17:43;;;;;;;18.20;12.15;;;;;;;11.36;60.51;101693.97;1748542;80;21100;-59
2021/10/31 09:20:11;;;;;;;14.53;10.13;;;;;;;11.39;60.09;101685.40;1768006;79;21089;-58
2021/10/31 09:22:38;;;;;;;15.63;10.43;;;;;;;11.41;59.46;101686.63;1775904;79;21143;-59
2021/10/31 09:25:05;;;;;;;16.00;10.38;;;;;;;11.41;59.27;101686.14;1774556;79;21000;-57
2021/10/31 09:27:32;;;;;;;17.05;10.15;;;;;;;11.46;59.37;101685.86;1768388;80;21112;-60
2021/10/31 09:29:59;;;;;;;16.00;9.88;;;;;;;11.51;59.19;101690.38;1769810;79;21491;-60
2021/10/31 09:32:39;;;;;;;14.85;8.50;;;;;;;11.58;58.95;101690.83;1771152;79;21067;-58
2021/10/31 09:35:08;;;;;;;19.35;8.68;;;;;;;11.64;58.67;101685.17;1704474;82;21780;-58
2021/10/31 09:37:35;;;;;;;14.07;8.05;;;;;;;11.73;58.46;101689.02;1699547;82;21095;-59
2021/10/31 09:40:03;;;;;;;13.13;7.55;;;;;;;11.91;58.09;101682.58;1739435;80;21096;-60
2021/10/31 09:42:36;;;;;;;11.50;7.17;;;;;;;12.08;57.78;101669.12;1773446;79;21043;-59
2021/10/31 09:45:04;;;;;;;15.32;6.97;;;;;;;12.25;57.21;101669.80;1765895;79;21387;-59
2021/10/31 09:47:32;;;;;;;11.68;8.20;;;;;;;12.36;56.99;101673.90;1777094;79;21107;-59
2021/10/31 09:49:58;;;;;;;13.60;7.17;;;;;;;12.44;56.95;101664.99;1767385;80;21035;-59
2021/10/31 09:52:26;;;;;;;13.08;7.72;;;;;;;12.52;56.24;101663.13;1775772;79;21362;-59
2021/10/31 09:54:53;;;;;;;11.65;7.12;;;;;;;12.62;55.84;101667.32;1775090;79;21094;-59
2021/10/31 09:57:19;;;;;;;12.33;6.58;;;;;;;12.72;55.65;101662.27;1775648;79;21010;-59
2021/10/31 09:59:54;;;;;;;11.15;6.75;;;;;;;12.79;55.18;101656.47;1769741;79;22341;-58
2021/10/31 10:02:50;;;;;;;10.30;6.10;;;;;;;12.83;54.60;101657.09;1769607;79;21557;-59
2021/10/31 10:05:19;;;;;;;9.78;6.17;;;;;;;12.90;54.55;101646.95;1740475;79;21847;-59
2021/10/31 10:07:47;;;;;;;13.03;5.87;;;;;;;12.97;54.23;101654.80;1771641;79;21477;-59
2021/10/31 10:10:14;;;;;;;8.73;5.50;;;;;;;13.02;54.35;101647.40;1771451;79;21055;-58
2021/10/31 10:12:41;;;;;;;9.83;5.90;;;;;;;13.08;54.06;101649.62;1770382;79;21216;-59
2021/10/31 10:15:10;;;;;;;11.73;5.58;;;;;;;13.15;53.93;101647.39;1774886;79;21616;-58
2021/10/31 10:17:48;;;;;;;12.28;5.60;;;;;;;13.23;53.75;101641.54;1779295;79;21547;-58
2021/10/31 10:20:15;;;;;;;7.62;4.25;;;;;;;13.29;53.04;101634.50;1775213;79;21112;-59
2021/10/31 10:22:42;;;;;;;10.65;5.62;;;;;;;13.33;51.42;101633.34;1780369;78;21023;-60
2021/10/31 10:25:08;;;;;;;8.30;4.62;;;;;;;13.36;51.27;101630.48;1780561;79;21744;-61
2021/10/31 10:27:49;;;;;;;8.25;5.03;;;;;;;13.40;50.94;101624.50;1752841;80;21042;-60
2021/10/31 10:30:19;;;;;;;9.23;5.22;;;;;;;13.44;50.25;101619.38;1781962;79;20964;-60
2021/10/31 10:32:53;;;;;;;10.95;5.60;;;;;;;13.47;50.03;101613.37;1776790;79;21033;-59
2021/10/31 10:35:25;;;;;;;9.68;6.17;;;;;;;13.52;50.54;101614.38;1776984;79;20972;-60
2021/10/31 10:37:52;;;;;;;11.08;5.97;;;;;;;13.56;51.02;101606.08;1780797;79;21594;-59
2021/10/31 10:40:23;;;;;;;8.10;4.50;;;;;;;13.61;50.84;101603.59;1775972;79;21086;-61
2021/10/31 10:42:58;;;;;;;7.67;4.60;;;;;;;13.66;50.15;101600.13;1778138;78;21397;-59
2021/10/31 10:45:27;;;;;;;8.87;4.57;;;;;;;13.70;48.79;101593.19;1780102;79;21029;-59
2021/10/31 10:48:02;;;;;;;9.40;4.80;;;;;;;13.74;49.18;101591.16;1778517;79;21370;-59
2021/10/31 10:50:39;;;;;;;7.80;4.42;;;;;;;13.80;49.77;101593.36;1762710;79;21189;-59
2021/10/31 10:53:18;;;;;;;10.23;4.70;;;;;;;13.88;49.59;101586.98;1761637;79;21069;-59
2021/10/31 10:55:45;;;;;;;9.90;4.42;;;;;;;13.90;49.75;101576.28;1783414;79;21087;-59
2021/10/31 10:58:14;;;;;;;10.13;4.83;;;;;;;13.99;49.08;101581.39;1782814;78;21126;-60
2021/10/31 11:00:46;;;;;;;10.85;5.35;;;;;;;14.07;48.92;101578.52;1780052;79;21019;-59
2021/10/31 11:03:18;;;;;;;8.15;4.30;;;;;;;14.13;48.29;101579.84;1773803;79;21066;-60
2021/10/31 11:05:49;;;;;;;7.28;4.70;;;;;;;14.20;48.67;101577.09;1779573;79;21046;-60
2021/10/31 11:08:19;;;;;;;7.58;4.53;;;;;;;14.27;48.16;101575.68;1781568;79;21032;-60
2021/10/31 11:10:59;;;;;;;8.55;4.55;;;;;;;14.34;47.23;101565.92;1781991;79;21035;-57
2021/10/31 11:13:29;;;;;;;8.08;4.67;;;;;;;14.40;47.54;101565.45;1779323;79;21047;-57
2021/10/31 11:15:57;;;;;;;7.75;4.03;;;;;;;14.46;47.29;101561.02;1717538;81;21097;-57
2021/10/31 11:18:23;;;;;;;7.10;4.17;;;;;;;14.49;46.86;101554.13;1786731;79;21042;-59
2021/10/31 11:20:50;;;;;;;9.03;4.17;;;;;;;14.55;47.08;101557.64;1770896;79;21023;-60
2021/10/31 11:23:21;;;;;;;10.43;4.47;;;;;;;14.62;46.33;101556.22;1759449;79;20989;-61
2021/10/31 11:25:48;;;;;;;8.98;4.70;;;;;;;14.65;46.16;101553.33;1782446;77;21079;-60
2021/10/31 11:28:16;;;;;;;8.23;4.83;;;;;;;14.69;46.14;101548.63;1781299;79;22326;-61
2021/10/31 11:30:47;;;;;;;6.22;3.72;;;;;;;14.71;46.25;101552.48;1782330;77;21079;-60